createdAt,value
2022-11-16T00:00:51.430Z,51.92
2022-11-16T00:03:19.066Z,52.07
2022-11-16T00:05:46.948Z,52.09
2022-11-16T00:08:14.484Z,51.94
2022-11-16T00:10:43.484Z,52.09
2022-11-16T00:13:11.075Z,52.01
2022-11-16T00:15:38.652Z,52.17
2022-11-16T00:18:06.287Z,52.04
2022-11-16T00:20:33.852Z,51.95
2022-11-16T00:23:01.422Z,52.15
2022-11-16T00:25:29.090Z,52.05
2022-11-16T00:27:58.053Z,51.91
2022-11-16T00:30:25.667Z,52.07
2022-11-16T00:32:53.247Z,51.96
2022-11-16T00:35:20.854Z,51.96
2022-11-16T00:37:48.448Z,52.07
2022-11-16T00:40:16.584Z,52.03
2022-11-16T00:42:44.169Z,51.86
2022-11-16T00:45:13.254Z,51.78
2022-11-16T00:47:40.802Z,51.97
2022-11-16T00:50:08.725Z,51.87
2022-11-16T00:52:36.303Z,52.01
2022-11-16T00:55:03.929Z,52.00
2022-11-16T00:57:31.531Z,51.94
2022-11-16T00:59:59.109Z,52.09
2022-11-16T01:02:29.109Z,52.03
2022-11-16T01:04:56.746Z,51.97
2022-11-16T01:07:24.348Z,51.94
2022-11-16T01:09:51.988Z,51.81
2022-11-16T01:12:18.604Z,51.73
2022-11-16T01:14:47.263Z,51.84
2022-11-16T01:17:14.908Z,51.87
2022-11-16T01:19:43.918Z,51.91
2022-11-16T01:22:11.512Z,52.05
2022-11-16T01:24:39.066Z,51.80
2022-11-16T01:27:06.615Z,51.98
2022-11-16T01:29:34.187Z,51.77
2022-11-16T01:32:01.760Z,51.91
2022-11-16T01:34:29.348Z,51.92
2022-11-16T01:36:58.343Z,51.78
2022-11-16T01:39:25.883Z,51.91
2022-11-16T01:41:53.427Z,51.85
2022-11-16T01:44:56.230Z,51.83
2022-11-16T01:47:23.830Z,51.94
2022-11-16T01:49:53.071Z,51.88
2022-11-16T01:52:23.816Z,51.87
2022-11-16T01:54:52.568Z,51.79
2022-11-16T01:57:23.254Z,51.86
2022-11-16T01:59:51.253Z,51.87
2022-11-16T02:02:18.849Z,51.81
2022-11-16T02:04:46.483Z,51.79
2022-11-16T02:07:16.680Z,51.82
2022-11-16T02:09:55.806Z,51.81
2022-11-16T02:12:46.504Z,51.95
2022-11-16T02:15:19.508Z,51.52
2022-11-16T02:17:49.585Z,51.75
2022-11-16T02:20:30.199Z,51.69
2022-11-16T02:23:09.344Z,51.66
2022-11-16T02:25:41.742Z,51.60
2022-11-16T02:28:20.626Z,51.61
2022-11-16T02:30:50.736Z,51.77
2022-11-16T02:33:19.802Z,51.80
2022-11-16T02:35:48.303Z,51.78
2022-11-16T02:38:17.303Z,51.81
2022-11-16T02:40:47.360Z,51.77
2022-11-16T02:43:16.926Z,51.75
2022-11-16T02:45:46.388Z,51.63
2022-11-16T02:48:18.207Z,51.64
2022-11-16T02:50:45.772Z,51.56
2022-11-16T02:53:13.344Z,51.62
2022-11-16T02:55:41.501Z,51.65
2022-11-16T02:58:10.787Z,51.74
2022-11-16T03:00:43.370Z,51.42
2022-11-16T03:03:20.844Z,51.73
2022-11-16T03:05:49.625Z,51.71
2022-11-16T03:08:20.184Z,51.51
2022-11-16T03:11:11.619Z,51.61
2022-11-16T03:13:39.203Z,51.58
2022-11-16T03:16:09.324Z,51.67
2022-11-16T03:18:38.403Z,51.54
2022-11-16T03:21:08.015Z,51.37
2022-11-16T03:23:35.589Z,51.59
2022-11-16T03:26:03.252Z,51.48
2022-11-16T03:28:34.500Z,51.40
2022-11-16T03:31:04.130Z,51.36
2022-11-16T03:33:32.635Z,51.44
2022-11-16T03:36:02.719Z,51.74
2022-11-16T03:38:30.415Z,51.65
2022-11-16T03:40:59.839Z,51.57
2022-11-16T03:43:27.477Z,51.60
2022-11-16T03:45:55.085Z,51.50
2022-11-16T03:48:22.648Z,51.31
2022-11-16T03:50:50.202Z,51.49
2022-11-16T03:53:19.179Z,51.39
2022-11-16T03:55:49.796Z,51.38
2022-11-16T03:58:18.528Z,51.58
2022-11-16T04:00:46.216Z,51.58
2022-11-16T04:03:13.869Z,51.46
2022-11-16T04:05:59.511Z,51.55
2022-11-16T04:08:46.200Z,51.46
2022-11-16T04:11:31.627Z,51.52
2022-11-16T04:14:17.093Z,51.46
2022-11-16T04:17:02.338Z,51.19
2022-11-16T04:19:47.616Z,51.51
2022-11-16T04:22:33.939Z,51.47
2022-11-16T04:25:06.602Z,51.49
2022-11-16T04:27:51.712Z,51.45
2022-11-16T04:30:19.452Z,51.53
2022-11-16T04:33:04.644Z,51.56
2022-11-16T04:35:49.736Z,51.49
2022-11-16T04:38:17.480Z,51.44
2022-11-16T04:40:46.444Z,51.43
2022-11-16T04:43:13.133Z,51.57
2022-11-16T04:45:58.334Z,51.67
2022-11-16T04:48:25.932Z,51.60
2022-11-16T04:50:53.516Z,51.63
2022-11-16T04:53:22.553Z,51.69
2022-11-16T04:55:52.847Z,51.69
2022-11-16T04:58:24.332Z,51.69
2022-11-16T05:00:51.917Z,51.71
2022-11-16T05:03:19.444Z,51.62
2022-11-16T05:05:47.031Z,51.58
2022-11-16T05:08:14.619Z,51.61
2022-11-16T05:10:42.218Z,51.57
2022-11-16T05:13:11.210Z,51.61
2022-11-16T05:15:38.753Z,51.61
2022-11-16T05:18:06.377Z,51.62
2022-11-16T05:20:51.352Z,51.73
2022-11-16T05:23:38.927Z,51.89
2022-11-16T05:26:06.796Z,51.74
2022-11-16T05:28:36.080Z,51.78
2022-11-16T05:31:03.871Z,51.91
2022-11-16T05:33:31.450Z,51.89
2022-11-16T05:35:59.035Z,52.14
2022-11-16T05:38:26.660Z,52.25
2022-11-16T05:40:54.227Z,52.32
2022-11-16T05:43:21.814Z,52.34
2022-11-16T05:45:50.729Z,52.47
2022-11-16T05:48:18.307Z,52.55
2022-11-16T05:50:45.914Z,52.56
2022-11-16T05:53:13.465Z,52.74
2022-11-16T05:55:41.023Z,52.71
2022-11-16T05:58:08.584Z,52.80
2022-11-16T06:00:36.143Z,52.81
2022-11-16T06:03:05.346Z,52.62
2022-11-16T06:05:40.041Z,52.60
2022-11-16T06:08:08.296Z,52.46
2022-11-16T06:10:36.837Z,52.44
2022-11-16T06:13:04.409Z,52.55
2022-11-16T06:15:31.962Z,52.37
2022-11-16T06:17:59.637Z,52.45
2022-11-16T06:20:28.601Z,52.48
2022-11-16T06:22:56.192Z,52.59
2022-11-16T06:25:23.827Z,52.68
2022-11-16T06:27:51.430Z,52.74
2022-11-16T06:30:19.131Z,52.91
2022-11-16T06:32:46.692Z,52.83
2022-11-16T06:35:14.297Z,52.90
2022-11-16T06:37:43.235Z,53.06
2022-11-16T06:40:11.794Z,53.21
2022-11-16T06:42:39.417Z,53.16
2022-11-16T06:45:07.608Z,52.97
2022-11-16T06:47:35.939Z,53.17
2022-11-16T06:50:03.539Z,53.30
2022-11-16T06:52:31.185Z,53.33
2022-11-16T06:55:00.111Z,53.39
2022-11-16T06:57:27.683Z,53.35
2022-11-16T06:59:55.299Z,53.26
2022-11-16T07:02:23.178Z,53.53
2022-11-16T07:04:50.769Z,53.45
2022-11-16T07:07:18.454Z,53.54
2022-11-16T07:09:46.032Z,53.63
2022-11-16T07:12:15.016Z,53.57
2022-11-16T07:14:42.772Z,53.63
2022-11-16T07:17:10.365Z,53.69
2022-11-16T07:19:43.109Z,53.75
2022-11-16T07:22:10.744Z,53.70
2022-11-16T07:24:38.382Z,53.67
2022-11-16T07:27:06.061Z,53.57
2022-11-16T07:29:35.086Z,53.90
2022-11-16T07:32:02.651Z,53.81
2022-11-16T07:35:25.654Z,53.80
2022-11-16T07:38:48.977Z,53.99
2022-11-16T07:42:26.664Z,53.81
2022-11-16T07:49:00.736Z,54.00
2022-11-16T07:51:28.285Z,53.88
2022-11-16T07:53:56.171Z,54.02
2022-11-16T07:56:24.097Z,53.87
2022-11-16T07:58:51.662Z,53.98
2022-11-16T08:01:19.601Z,53.88
2022-11-16T08:03:48.039Z,53.92
2022-11-16T08:06:18.083Z,54.11
2022-11-16T08:08:45.663Z,53.87
2022-11-16T08:11:13.594Z,54.07
2022-11-16T08:13:41.616Z,54.09
2022-11-16T08:16:10.749Z,54.08
2022-11-16T08:18:38.754Z,54.11
2022-11-16T08:21:06.858Z,54.14
2022-11-16T08:23:35.827Z,54.08
2022-11-16T08:26:04.320Z,54.28
2022-11-16T08:28:32.518Z,54.02
2022-11-16T08:31:00.374Z,54.32
2022-11-16T08:33:29.855Z,54.16
2022-11-16T08:35:58.663Z,54.06
2022-11-16T08:38:26.217Z,54.24
2022-11-16T08:40:56.459Z,54.50
2022-11-16T08:43:24.008Z,54.18
2022-11-16T08:45:53.124Z,54.12
2022-11-16T08:48:20.733Z,54.24
2022-11-16T08:51:10.475Z,54.24
2022-11-16T08:53:37.925Z,54.36
2022-11-16T08:56:08.640Z,54.39
2022-11-16T08:58:36.553Z,54.29
2022-11-16T09:01:09.877Z,54.34
2022-11-16T09:03:38.788Z,54.34
2022-11-16T09:06:06.716Z,54.49
2022-11-16T09:08:34.651Z,54.39
2022-11-16T09:11:05.026Z,54.58
2022-11-16T09:13:34.010Z,54.46
2022-11-16T09:16:02.131Z,54.39
2022-11-16T09:18:29.782Z,54.65
2022-11-16T09:20:57.553Z,54.47
2022-11-16T09:23:25.934Z,54.45
2022-11-16T09:25:53.828Z,54.56
2022-11-16T09:28:21.930Z,54.65
2022-11-16T09:30:51.539Z,54.66
2022-11-16T09:33:19.238Z,54.66
2022-11-16T09:35:47.452Z,54.76
2022-11-16T09:38:22.067Z,54.66
2022-11-16T09:40:58.707Z,54.70
2022-11-16T09:43:34.488Z,54.74
2022-11-16T09:46:07.168Z,54.91
2022-11-16T09:48:34.767Z,54.92
2022-11-16T09:51:07.429Z,54.62
2022-11-16T09:53:37.465Z,54.92
2022-11-16T09:56:06.873Z,54.98
2022-11-16T09:58:37.682Z,54.89
2022-11-16T10:01:08.718Z,55.03
2022-11-16T10:03:39.292Z,54.62
2022-11-16T10:06:07.479Z,54.97
2022-11-16T10:08:43.025Z,55.24
2022-11-16T10:11:29.626Z,55.07
2022-11-16T10:14:04.255Z,55.16
2022-11-16T10:16:35.849Z,55.23
2022-11-16T10:19:05.514Z,55.25
2022-11-16T10:21:38.272Z,55.45
2022-11-16T10:24:27.403Z,55.22
2022-11-16T10:27:01.339Z,55.18
2022-11-16T10:29:37.939Z,55.05
2022-11-16T10:32:15.249Z,54.87
2022-11-16T10:34:47.061Z,54.69
2022-11-16T10:37:14.810Z,54.64
2022-11-16T10:39:42.423Z,54.53
2022-11-16T10:42:12.238Z,54.57
2022-11-16T10:44:41.923Z,54.63
2022-11-16T10:47:15.921Z,54.31
2022-11-16T10:49:47.765Z,54.26
2022-11-16T10:52:15.468Z,54.13
2022-11-16T10:54:44.574Z,54.05
2022-11-16T10:57:14.012Z,53.76
2022-11-16T10:59:43.348Z,53.79
2022-11-16T11:02:45.420Z,53.89
2022-11-16T11:05:17.089Z,53.72
2022-11-16T11:07:46.052Z,53.61
2022-11-16T11:10:27.866Z,53.63
2022-11-16T11:13:18.549Z,53.61
2022-11-16T11:15:47.935Z,53.67
2022-11-16T11:18:25.897Z,53.51
2022-11-16T11:21:01.419Z,53.51
2022-11-16T11:23:29.200Z,53.36
2022-11-16T11:25:57.736Z,53.41
2022-11-16T11:28:26.399Z,53.43
2022-11-16T11:30:56.187Z,53.52
2022-11-16T11:33:25.537Z,53.36
2022-11-16T11:35:58.402Z,53.54
2022-11-16T11:38:26.051Z,53.30
2022-11-16T11:40:58.800Z,53.30
2022-11-16T11:43:26.535Z,53.45
2022-11-16T11:45:56.325Z,53.40
2022-11-16T11:48:31.149Z,53.72
2022-11-16T11:50:59.849Z,53.99
2022-11-16T11:53:43.880Z,53.97
2022-11-16T11:56:11.687Z,54.19
2022-11-16T11:58:40.512Z,54.41
2022-11-16T12:01:24.845Z,54.24
2022-11-16T12:04:21.391Z,54.34
2022-11-16T12:06:50.689Z,54.41
2022-11-16T12:09:25.064Z,54.46
2022-11-16T12:12:00.567Z,54.55
2022-11-16T12:14:34.881Z,54.52
2022-11-16T12:17:07.840Z,54.66
2022-11-16T12:19:49.232Z,54.67
2022-11-16T12:22:25.077Z,54.78
2022-11-16T12:24:59.509Z,54.82
2022-11-16T12:27:30.921Z,54.77
2022-11-16T12:30:03.248Z,54.71
2022-11-16T12:32:37.922Z,54.84
2022-11-16T12:35:16.039Z,54.85
2022-11-16T12:37:46.581Z,54.94
2022-11-16T12:40:23.923Z,54.88
2022-11-16T12:42:52.705Z,55.04
2022-11-16T12:45:32.064Z,55.15
2022-11-16T12:48:31.067Z,54.77
2022-11-16T12:51:00.843Z,54.96
2022-11-16T12:53:58.301Z,55.00
2022-11-16T12:56:30.240Z,54.99
2022-11-16T12:59:10.679Z,55.08
2022-11-16T13:01:40.866Z,55.41
2022-11-16T13:04:09.939Z,55.21
2022-11-16T13:06:40.641Z,55.26
2022-11-16T13:09:10.835Z,55.21
2022-11-16T13:11:39.620Z,55.38
2022-11-16T13:14:09.013Z,55.50
2022-11-16T13:16:36.727Z,55.35
2022-11-16T13:19:04.559Z,55.36
2022-11-16T13:21:42.188Z,55.38
2022-11-16T13:24:17.967Z,55.63
2022-11-16T13:26:48.254Z,55.53
2022-11-16T13:29:19.660Z,55.32
2022-11-16T13:31:49.523Z,55.60
2022-11-16T13:34:20.290Z,55.59
2022-11-16T13:36:49.307Z,55.55
2022-11-16T13:39:22.353Z,55.83
2022-11-16T13:41:50.848Z,55.62
2022-11-16T13:44:29.396Z,55.62
2022-11-16T13:46:59.672Z,55.55
2022-11-16T13:49:29.854Z,55.52
2022-11-16T13:52:16.812Z,55.52
2022-11-16T13:54:48.400Z,55.40
2022-11-16T13:57:24.482Z,55.54
2022-11-16T13:59:57.199Z,55.42
2022-11-16T14:02:32.239Z,55.55
2022-11-16T14:05:00.419Z,55.69
2022-11-16T14:07:42.750Z,55.44
2022-11-16T14:10:10.537Z,55.42
2022-11-16T14:12:56.747Z,55.53
2022-11-16T14:15:29.371Z,55.74
2022-11-16T14:18:02.036Z,55.71
2022-11-16T14:20:55.748Z,55.50
2022-11-16T14:23:39.917Z,55.41
2022-11-16T14:26:14.023Z,55.65
2022-11-16T14:29:03.865Z,55.58
2022-11-16T14:31:32.225Z,55.71
2022-11-16T14:34:00.595Z,55.91
2022-11-16T14:36:39.809Z,55.63
2022-11-16T14:39:29.117Z,55.52
2022-11-16T14:41:57.806Z,55.47
2022-11-16T14:44:26.880Z,55.50
2022-11-16T14:46:54.432Z,55.45
2022-11-16T14:49:22.006Z,55.53
2022-11-16T14:51:50.965Z,55.66
2022-11-16T14:54:22.620Z,55.28
2022-11-16T14:56:58.801Z,55.04
2022-11-16T14:59:26.508Z,55.11
2022-11-16T15:01:54.112Z,54.95
2022-11-16T15:04:22.038Z,54.99
2022-11-16T15:06:50.309Z,54.87
2022-11-16T15:09:20.686Z,54.85
2022-11-16T15:12:06.323Z,54.78
2022-11-16T15:14:39.112Z,54.58
2022-11-16T15:17:31.741Z,54.57
2022-11-16T15:20:17.655Z,54.51
2022-11-16T15:22:47.303Z,54.53
2022-11-16T15:25:26.333Z,54.68
2022-11-16T15:27:54.118Z,54.23
2022-11-16T15:30:24.296Z,54.68
2022-11-16T15:32:52.394Z,54.29
2022-11-16T15:35:21.673Z,54.62
2022-11-16T15:37:49.516Z,54.65
2022-11-16T15:40:17.164Z,54.77
2022-11-16T15:42:44.743Z,54.83
2022-11-16T15:45:26.027Z,54.77
2022-11-16T15:47:53.746Z,54.77
2022-11-16T15:50:23.151Z,55.01
2022-11-16T15:52:54.939Z,55.08
2022-11-16T15:55:24.693Z,55.03
2022-11-16T15:58:03.117Z,55.04
2022-11-16T16:00:32.667Z,55.18
2022-11-16T16:03:03.518Z,55.17
2022-11-16T16:05:35.704Z,55.21
2022-11-16T16:08:03.550Z,55.25
2022-11-16T16:10:31.228Z,55.17
2022-11-16T16:12:59.463Z,55.48
2022-11-16T16:15:29.798Z,55.32
2022-11-16T16:18:39.072Z,55.57
2022-11-16T16:21:06.900Z,55.48
2022-11-16T16:23:34.633Z,55.26
2022-11-16T16:26:03.914Z,55.06
2022-11-16T16:28:31.491Z,54.96
2022-11-16T16:30:59.087Z,55.24
2022-11-16T16:33:29.717Z,55.31
2022-11-16T16:35:57.387Z,55.24
2022-11-16T16:38:25.050Z,55.26
2022-11-16T16:40:52.674Z,55.48
2022-11-16T16:43:20.295Z,55.69
2022-11-16T16:45:47.915Z,55.62
2022-11-16T16:48:15.851Z,55.43
2022-11-16T16:50:44.795Z,55.50
2022-11-16T16:53:12.721Z,55.81
2022-11-16T16:55:40.273Z,56.11
2022-11-16T16:58:07.982Z,56.01
2022-11-16T17:00:35.615Z,56.32
2022-11-16T17:03:03.224Z,56.32
2022-11-16T17:05:32.671Z,56.93
2022-11-16T17:08:01.611Z,57.33
2022-11-16T17:10:29.192Z,57.70
2022-11-16T17:12:57.145Z,57.84
2022-11-16T17:15:24.864Z,57.87
2022-11-16T17:17:52.878Z,58.30
2022-11-16T17:20:20.493Z,58.17
2022-11-16T17:22:48.058Z,58.11
2022-11-16T17:25:17.142Z,58.10
2022-11-16T17:27:44.720Z,58.12
2022-11-16T17:30:13.823Z,57.56
2022-11-16T17:32:41.411Z,57.66
2022-11-16T17:35:09.917Z,57.75
2022-11-16T17:37:37.572Z,57.62
2022-11-16T17:40:05.741Z,57.52
2022-11-16T17:42:35.540Z,57.22
2022-11-16T17:45:03.214Z,56.99
2022-11-16T17:47:32.034Z,56.81
2022-11-16T17:49:59.627Z,56.70
2022-11-16T17:52:27.301Z,56.71
2022-11-16T17:54:54.887Z,56.48
2022-11-16T17:57:22.527Z,56.29
2022-11-16T17:59:51.485Z,56.11
2022-11-16T18:02:19.132Z,55.34
2022-11-16T18:04:50.850Z,54.59
2022-11-16T18:07:18.944Z,54.80
2022-11-16T18:09:46.630Z,55.21
2022-11-16T18:12:14.207Z,54.82
2022-11-16T18:14:42.447Z,54.35
2022-11-16T18:17:11.648Z,54.05
2022-11-16T18:19:39.228Z,54.02
2022-11-16T18:22:06.877Z,53.97
2022-11-16T18:24:34.465Z,53.92
2022-11-16T18:27:02.203Z,53.27
2022-11-16T18:29:29.900Z,53.18
2022-11-16T18:31:57.448Z,53.56
2022-11-16T18:34:26.375Z,53.38
2022-11-16T18:36:53.962Z,52.74
2022-11-16T18:39:21.519Z,52.91
2022-11-16T18:41:54.716Z,53.07
2022-11-16T18:44:23.093Z,52.93
2022-11-16T18:46:50.997Z,52.21
2022-11-16T18:49:18.625Z,52.57
2022-11-16T18:51:47.589Z,52.60
2022-11-16T18:54:15.163Z,52.63
2022-11-16T18:56:42.720Z,52.28
2022-11-16T18:59:10.292Z,51.92
2022-11-16T19:01:37.919Z,51.97
2022-11-16T19:04:07.465Z,52.00
2022-11-16T19:06:35.008Z,52.19
2022-11-16T19:09:06.161Z,51.62
2022-11-16T19:11:33.756Z,51.98
2022-11-16T19:14:03.697Z,51.68
2022-11-16T19:16:31.598Z,51.77
2022-11-16T19:18:59.140Z,51.81
2022-11-16T19:21:27.007Z,52.08
2022-11-16T19:23:55.320Z,51.66
2022-11-16T19:26:25.419Z,51.39
2022-11-16T19:28:53.883Z,52.04
2022-11-16T19:31:22.512Z,51.68
2022-11-16T19:33:54.296Z,51.91
2022-11-16T19:36:21.879Z,51.81
2022-11-16T19:38:49.588Z,51.92
2022-11-16T19:41:20.085Z,52.72
2022-11-16T19:43:49.095Z,52.13
2022-11-16T19:46:17.683Z,52.36
2022-11-16T19:48:45.682Z,53.27
2022-11-16T19:51:13.881Z,52.37
2022-11-16T19:53:41.458Z,52.66
2022-11-16T19:56:10.104Z,52.88
2022-11-16T19:58:38.493Z,52.95
2022-11-16T20:01:08.249Z,53.28
2022-11-16T20:03:38.419Z,53.73
2022-11-16T20:06:08.044Z,53.33
2022-11-16T20:08:35.701Z,53.54
2022-11-16T20:11:03.312Z,53.76
2022-11-16T20:13:30.865Z,53.93
2022-11-16T20:15:58.411Z,54.02
2022-11-16T20:18:30.003Z,54.03
2022-11-16T20:21:01.179Z,54.18
2022-11-16T20:23:28.767Z,54.31
2022-11-16T20:25:56.344Z,54.38
2022-11-16T20:28:23.928Z,54.48
2022-11-16T20:30:51.533Z,54.39
2022-11-16T20:33:19.220Z,54.45
2022-11-16T20:35:48.132Z,54.73
2022-11-16T20:38:15.748Z,54.79
2022-11-16T20:40:43.328Z,54.87
2022-11-16T20:43:14.290Z,54.92
2022-11-16T20:45:41.824Z,55.04
2022-11-16T20:48:09.500Z,55.11
2022-11-16T20:50:37.039Z,55.10
2022-11-16T20:53:05.922Z,55.11
2022-11-16T20:55:33.710Z,55.20
2022-11-16T20:58:01.279Z,55.44
2022-11-16T21:00:28.819Z,55.30
2022-11-16T21:02:56.408Z,55.28
2022-11-16T21:05:24.013Z,55.57
2022-11-16T21:07:51.946Z,55.41
2022-11-16T21:10:20.942Z,55.47
2022-11-16T21:13:06.707Z,55.58
2022-11-16T21:15:34.292Z,55.52
2022-11-16T21:18:01.849Z,55.56
2022-11-16T21:20:29.476Z,55.66
2022-11-16T21:22:57.026Z,55.60
2022-11-16T21:25:26.033Z,55.74
2022-11-16T21:27:53.644Z,55.70
2022-11-16T21:30:21.477Z,55.74
2022-11-16T21:32:49.134Z,55.68
2022-11-16T21:35:16.736Z,55.80
2022-11-16T21:37:44.393Z,55.75
2022-11-16T21:40:13.044Z,55.81
2022-11-16T21:42:41.968Z,55.75
2022-11-16T21:45:10.848Z,55.82
2022-11-16T21:47:38.363Z,55.93
2022-11-16T21:52:54.408Z,55.79
2022-11-16T21:55:21.976Z,55.65
2022-11-16T21:57:51.104Z,55.81
2022-11-16T22:00:19.772Z,55.96
2022-11-16T22:02:47.332Z,56.06
2022-11-16T22:05:32.760Z,55.93
2022-11-16T22:08:05.009Z,55.96
2022-11-16T22:10:32.581Z,55.79
2022-11-16T22:13:01.498Z,55.92
2022-11-16T22:15:29.112Z,55.92
2022-11-16T22:17:56.765Z,56.01
2022-11-16T22:20:24.420Z,55.97
2022-11-16T22:22:51.996Z,56.07
2022-11-16T22:25:19.928Z,56.09
2022-11-16T22:28:13.940Z,56.03
2022-11-16T22:30:37.539Z,55.95
2022-11-16T22:33:05.266Z,55.90
2022-11-16T22:35:32.852Z,55.96
2022-11-16T22:38:00.556Z,55.97
2022-11-16T22:40:28.118Z,56.05
2022-11-16T22:42:57.447Z,56.10
2022-11-16T22:45:25.016Z,56.02
2022-11-16T22:47:55.010Z,56.01
2022-11-16T22:50:23.955Z,56.12
2022-11-16T22:52:51.491Z,55.98
2022-11-16T22:55:19.099Z,55.96
2022-11-16T22:57:46.687Z,56.10
2022-11-16T23:00:15.257Z,55.99
2022-11-16T23:02:42.857Z,56.09
2022-11-16T23:05:11.887Z,56.01
2022-11-16T23:07:41.296Z,56.01
2022-11-16T23:10:09.894Z,56.08
2022-11-16T23:12:54.863Z,55.96
2022-11-16T23:18:27.939Z,56.25
2022-11-16T23:21:18.853Z,56.17
2022-11-16T23:24:04.029Z,56.31
2022-11-16T23:26:51.618Z,56.29
2022-11-16T23:29:19.193Z,56.22
2022-11-16T23:31:46.736Z,56.37
2022-11-16T23:34:15.822Z,56.31
2022-11-16T23:36:43.423Z,56.57
2022-11-16T23:39:11.254Z,56.50
2022-11-16T23:41:56.284Z,56.47
2022-11-16T23:44:23.808Z,56.51
2022-11-16T23:46:51.359Z,56.52
2022-11-16T23:49:20.291Z,56.69
2022-11-16T23:51:47.891Z,56.78
2022-11-16T23:54:15.516Z,56.76
2022-11-16T23:56:43.099Z,56.82
2022-11-16T23:59:10.652Z,56.67
